Time;durP1;ratioP1;P1;durP2;ratioP2;P2;SDS_P1;SDS_P2;PMS_P1;PMS_P2;Temp;Humidity;BMP_temperature;BMP_pressure;BME280_temperature;BME280_humidity;BME280_pressure;Samples;Min_cycle;Max_cycle;Signal;HPM_P1;HPM_P2
2024/01/24 00:00:42;;;;;;;175.90;162.00;;;;;;;-143.39;100.00;64013.03;4985124;28;20070;-61
2024/01/24 00:03:08;;;;;;;180.15;166.02;;;;;;;-143.39;100.00;64013.03;4985015;28;20081;-61
2024/01/24 00:05:35;;;;;;;180.27;166.05;;;;;;;-143.39;100.00;64013.03;4991238;28;20050;-60
2024/01/24 00:08:04;;;;;;;193.25;178.80;;;;;;;-143.39;100.00;64013.03;4984534;28;20057;-59
2024/01/24 00:10:32;;;;;;;200.07;184.80;;;;;;;-143.39;100.00;64013.03;4982146;28;20077;-59
2024/01/24 00:12:59;;;;;;;218.13;201.55;;;;;;;-143.39;100.00;64013.03;4972593;28;20059;-60
2024/01/24 00:15:26;;;;;;;201.30;185.55;;;;;;;-143.39;100.00;64013.03;4987205;28;20054;-60
2024/01/24 00:17:53;;;;;;;188.63;173.35;;;;;;;-143.39;100.00;64013.03;4978093;28;20053;-60
2024/01/24 00:20:20;;;;;;;183.40;169.07;;;;;;;-143.39;100.00;64013.03;4981095;28;20058;-60
2024/01/24 00:22:47;;;;;;;174.07;159.57;;;;;;;-143.39;100.00;64013.03;4991799;28;20053;-59
2024/01/24 00:25:15;;;;;;;165.07;151.43;;;;;;;-143.39;100.00;64013.03;4994795;28;20065;-58
2024/01/24 00:27:42;;;;;;;199.15;183.00;;;;;;;-143.39;100.00;64013.03;4981941;28;20055;-59
2024/01/24 00:30:10;;;;;;;192.63;177.65;;;;;;;-143.39;100.00;64013.03;4977891;28;20054;-59
2024/01/24 00:32:37;;;;;;;190.00;175.20;;;;;;;-143.39;100.00;64013.03;4982133;28;20089;-59
2024/01/24 00:35:05;;;;;;;186.07;171.35;;;;;;;-143.39;100.00;64013.03;4979312;28;20549;-59
2024/01/24 00:37:31;;;;;;;193.50;178.60;;;;;;;-143.39;100.00;64013.03;4977251;28;20124;-61
2024/01/24 00:39:58;;;;;;;210.15;194.07;;;;;;;-143.39;100.00;64013.03;4977436;28;20055;-61
2024/01/24 00:42:26;;;;;;;229.95;211.85;;;;;;;-143.39;100.00;64013.03;4972891;28;20062;-61
2024/01/24 00:44:53;;;;;;;221.27;204.35;;;;;;;-143.39;100.00;64013.03;4978869;28;20450;-61
2024/01/24 00:47:20;;;;;;;204.38;188.63;;;;;;;-143.39;100.00;64013.03;5006019;28;20065;-61
2024/01/24 00:49:47;;;;;;;197.27;180.77;;;;;;;-143.39;100.00;64013.03;4985747;28;20504;-61
2024/01/24 00:52:14;;;;;;;181.05;165.52;;;;;;;-143.39;100.00;64013.03;4980316;28;20052;-60
2024/01/24 00:54:41;;;;;;;179.02;164.68;;;;;;;-143.39;100.00;64013.03;4993558;28;20057;-59
2024/01/24 00:57:08;;;;;;;167.63;154.52;;;;;;;-143.39;100.00;64013.03;4986799;28;20058;-59
2024/01/24 00:59:36;;;;;;;155.52;142.73;;;;;;;-143.39;100.00;64013.03;4981859;28;20096;-59
2024/01/24 01:02:04;;;;;;;156.80;144.70;;;;;;;-143.39;100.00;64013.03;4985488;28;20058;-59
2024/01/24 01:04:30;;;;;;;180.77;166.77;;;;;;;-143.39;100.00;64013.03;4984026;28;20065;-59
2024/01/24 01:06:57;;;;;;;170.65;156.85;;;;;;;-143.39;100.00;64013.03;4994755;28;20421;-59
2024/01/24 01:09:24;;;;;;;167.38;154.13;;;;;;;-143.39;100.00;64013.03;4979431;28;20054;-59
2024/01/24 01:11:51;;;;;;;176.45;162.38;;;;;;;-143.39;100.00;64013.03;4975856;28;20055;-59
2024/01/24 01:14:18;;;;;;;164.35;151.35;;;;;;;-143.39;100.00;64013.03;4980065;28;20083;-61
2024/01/24 01:16:46;;;;;;;159.57;147.27;;;;;;;-143.39;100.00;64013.03;4982899;28;20055;-62
2024/01/24 01:19:13;;;;;;;172.80;159.55;;;;;;;-143.39;100.00;64013.03;4985205;28;20074;-60
2024/01/24 01:21:40;;;;;;;170.00;157.05;;;;;;;-143.39;100.00;64013.03;4977724;28;20073;-61
2024/01/24 01:24:08;;;;;;;172.38;158.90;;;;;;;-143.39;100.00;64013.03;4985717;28;20109;-61
2024/01/24 01:26:35;;;;;;;166.30;151.95;;;;;;;-143.39;100.00;64013.03;4979432;28;20082;-59
2024/01/24 01:29:02;;;;;;;163.52;150.15;;;;;;;-143.39;100.00;64013.03;4983746;28;20057;-59
2024/01/24 01:31:29;;;;;;;184.77;170.15;;;;;;;-143.39;100.00;64013.03;4982145;28;20058;-60
2024/01/24 01:33:57;;;;;;;181.82;167.52;;;;;;;-143.39;100.00;64013.03;4974727;28;20050;-60
2024/01/24 01:36:24;;;;;;;164.52;151.23;;;;;;;-143.39;100.00;64013.03;4983452;28;20058;-60
2024/01/24 01:38:51;;;;;;;173.43;159.38;;;;;;;-143.39;100.00;64013.03;4980523;28;20054;-61
2024/01/24 01:41:18;;;;;;;153.55;141.05;;;;;;;-143.39;100.00;64013.03;4984369;28;20057;-61
2024/01/24 01:43:48;;;;;;;159.35;146.70;;;;;;;-143.39;100.00;64013.03;4996091;28;20452;-60
2024/01/24 01:46:18;;;;;;;162.82;149.32;;;;;;;-143.39;100.00;64013.03;4980858;28;20500;-61
2024/01/24 01:48:49;;;;;;;169.30;155.15;;;;;;;-143.39;100.00;64013.03;4975973;28;20058;-62
2024/01/24 01:51:19;;;;;;;167.88;154.18;;;;;;;-143.39;100.00;64013.03;4980897;28;20058;-61
2024/01/24 01:53:48;;;;;;;168.68;155.10;;;;;;;-143.39;100.00;64013.03;4976194;28;20061;-60
2024/01/24 01:56:18;;;;;;;169.43;155.60;;;;;;;-143.39;100.00;64013.03;4975288;28;20511;-62
2024/01/24 01:58:46;;;;;;;167.70;153.55;;;;;;;-143.39;100.00;64013.03;4981411;28;20047;-63
2024/01/24 02:01:15;;;;;;;188.02;173.10;;;;;;;-143.39;100.00;64013.03;4980332;28;20054;-60
2024/01/24 02:03:43;;;;;;;194.73;178.85;;;;;;;-143.39;100.00;64013.03;4981184;28;20083;-61
2024/01/24 02:06:10;;;;;;;189.05;173.55;;;;;;;-143.39;100.00;64013.03;4975641;28;20422;-61
2024/01/24 02:08:39;;;;;;;195.82;180.75;;;;;;;-143.39;100.00;64013.03;4977196;28;20046;-59
2024/01/24 02:11:06;;;;;;;198.02;182.75;;;;;;;-143.39;100.00;64013.03;4975231;28;20113;-58
2024/01/24 02:13:33;;;;;;;217.23;200.68;;;;;;;-143.39;100.00;64013.03;4979527;28;20054;-59
2024/01/24 02:16:00;;;;;;;207.18;191.02;;;;;;;-143.39;100.00;64013.03;4983407;28;20050;-59
2024/01/24 02:18:27;;;;;;;198.93;183.07;;;;;;;-143.39;100.00;64013.03;4975537;28;20055;-59
2024/01/24 02:20:55;;;;;;;191.88;177.07;;;;;;;-143.39;100.00;64013.03;4972255;28;20208;-61
2024/01/24 02:23:23;;;;;;;197.50;182.05;;;;;;;-143.39;100.00;64013.03;4976805;28;20440;-59
2024/01/24 02:25:52;;;;;;;168.52;154.27;;;;;;;-143.39;100.00;64013.03;4982745;28;20061;-59
2024/01/24 02:28:19;;;;;;;199.88;184.27;;;;;;;-143.39;100.00;64013.03;4987778;28;20049;-60
2024/01/24 02:30:46;;;;;;;176.98;162.52;;;;;;;-143.39;100.00;64013.03;4980147;28;20076;-59
2024/01/24 02:33:14;;;;;;;158.32;145.38;;;;;;;-143.39;100.00;64013.03;4980633;28;20058;-59
2024/01/24 02:35:41;;;;;;;160.40;147.40;;;;;;;-143.39;100.00;64013.03;4977715;28;20080;-59
2024/01/24 02:38:08;;;;;;;184.82;170.43;;;;;;;-143.39;100.00;64013.03;4978661;28;20057;-59
2024/01/24 02:40:35;;;;;;;225.88;209.27;;;;;;;-143.39;100.00;64013.03;4982283;28;20436;-59
2024/01/24 02:43:04;;;;;;;211.20;194.85;;;;;;;-143.39;100.00;64013.03;4976442;28;20054;-60
2024/01/24 02:45:31;;;;;;;212.93;196.93;;;;;;;-143.39;100.00;64013.03;4978621;28;20425;-61
2024/01/24 02:47:58;;;;;;;210.43;194.95;;;;;;;-143.39;100.00;64013.03;4987410;28;20054;-61
2024/01/24 02:50:24;;;;;;;191.50;176.95;;;;;;;-143.39;100.00;64013.03;4983040;28;20050;-61
2024/01/24 02:52:51;;;;;;;164.98;151.63;;;;;;;-143.39;100.00;64013.03;4968127;28;20051;-61
2024/01/24 02:55:18;;;;;;;151.15;138.88;;;;;;;-143.39;100.00;64013.03;4976304;28;20058;-61
2024/01/24 02:57:45;;;;;;;171.00;157.63;;;;;;;-143.39;100.00;64013.03;4981333;28;20526;-61
2024/01/24 03:00:18;;;;;;;157.98;145.45;;;;;;;-143.39;100.00;64013.03;4984701;28;20647;-61
2024/01/24 03:02:45;;;;;;;161.75;149.15;;;;;;;-143.39;100.00;64013.03;4984876;28;20054;-63
2024/01/24 03:05:11;;;;;;;149.77;137.90;;;;;;;-143.39;100.00;64013.03;4979903;28;20061;-60
2024/01/24 03:07:40;;;;;;;164.57;151.20;;;;;;;-143.39;100.00;64013.03;4985559;28;20050;-61
2024/01/24 03:10:08;;;;;;;198.00;182.80;;;;;;;-143.39;100.00;64013.03;4977401;28;20089;-61
2024/01/24 03:12:35;;;;;;;200.57;185.88;;;;;;;-143.39;100.00;64013.03;4991638;28;20148;-59
2024/01/24 03:15:02;;;;;;;189.38;174.98;;;;;;;-143.39;100.00;64013.03;4980560;28;20156;-59
2024/01/24 03:17:30;;;;;;;194.30;179.45;;;;;;;-143.39;100.00;64013.03;4978684;28;20046;-59
2024/01/24 03:19:57;;;;;;;190.85;176.05;;;;;;;-143.39;100.00;64013.03;4976196;28;20062;-59
2024/01/24 03:22:25;;;;;;;205.63;189.90;;;;;;;-143.39;100.00;64013.03;4977217;28;20062;-59
2024/01/24 03:24:52;;;;;;;201.43;186.13;;;;;;;-143.39;100.00;64013.03;5001297;28;20053;-58
2024/01/24 03:27:18;;;;;;;206.95;191.20;;;;;;;-143.39;100.00;64013.03;4977985;28;20535;-59
2024/01/24 03:29:45;;;;;;;203.70;188.10;;;;;;;-143.39;100.00;64013.03;4978318;28;20535;-59
2024/01/24 03:32:12;;;;;;;179.73;165.80;;;;;;;-143.39;100.00;64013.03;4988034;28;20637;-59
2024/01/24 03:34:40;;;;;;;190.80;176.13;;;;;;;-143.39;100.00;64013.03;4976842;28;20062;-59
2024/01/24 03:37:07;;;;;;;157.70;145.27;;;;;;;-143.39;100.00;64013.03;4984242;28;20054;-59
2024/01/24 03:39:35;;;;;;;161.80;148.80;;;;;;;-143.39;100.00;64013.03;4982641;28;20050;-59
2024/01/24 03:42:02;;;;;;;176.10;162.48;;;;;;;-143.39;100.00;64013.03;4994274;28;20059;-59
2024/01/24 03:44:29;;;;;;;170.35;155.45;;;;;;;-143.39;100.00;64013.03;4983664;28;20108;-59
2024/01/24 03:46:56;;;;;;;151.48;139.43;;;;;;;-143.39;100.00;64013.03;4984217;28;20288;-60
2024/01/24 03:49:23;;;;;;;159.07;146.82;;;;;;;-143.39;100.00;64013.03;4989112;28;20512;-62
2024/01/24 03:51:51;;;;;;;161.52;149.07;;;;;;;-143.39;100.00;64013.03;5000233;28;20438;-62
2024/01/24 03:54:18;;;;;;;183.30;169.60;;;;;;;-143.39;100.00;64013.03;4983542;28;20057;-62
2024/01/24 03:56:45;;;;;;;180.25;166.52;;;;;;;-143.39;100.00;64013.03;4980405;28;20539;-62
2024/01/24 03:59:11;;;;;;;154.77;142.68;;;;;;;-143.39;100.00;64013.03;4985745;28;20555;-62
2024/01/24 04:01:38;;;;;;;150.00;138.27;;;;;;;-143.39;100.00;64013.03;4992815;28;20049;-62
2024/01/24 04:04:05;;;;;;;135.25;124.25;;;;;;;-143.39;100.00;64013.03;4990027;28;20061;-61
2024/01/24 04:06:32;;;;;;;144.02;132.48;;;;;;;-143.39;100.00;64013.03;4981870;28;20058;-61
2024/01/24 04:09:00;;;;;;;167.23;154.43;;;;;;;-143.39;100.00;64013.03;4977541;28;20054;-61
2024/01/24 04:11:27;;;;;;;167.50;154.15;;;;;;;-143.39;100.00;64013.03;4995389;28;20065;-61
2024/01/24 04:13:54;;;;;;;163.45;150.32;;;;;;;-143.39;100.00;64013.03;4988387;28;20054;-59
2024/01/24 04:16:21;;;;;;;141.63;130.18;;;;;;;-143.39;100.00;64013.03;4983020;28;20057;-58
2024/01/24 04:18:50;;;;;;;124.10;113.85;;;;;;;-143.39;100.00;64013.03;4985059;28;20053;-59
2024/01/24 04:21:16;;;;;;;127.75;116.90;;;;;;;-143.39;100.00;64013.03;4984860;28;20046;-59
2024/01/24 04:23:43;;;;;;;144.45;132.82;;;;;;;-143.39;100.00;64013.03;4986583;28;20054;-61
2024/01/24 04:26:12;;;;;;;131.57;121.18;;;;;;;-143.39;100.00;64013.03;4987661;28;20450;-61
2024/01/24 04:28:39;;;;;;;142.27;131.10;;;;;;;-143.39;100.00;64013.03;4980683;28;20101;-59
2024/01/24 04:31:05;;;;;;;128.70;118.25;;;;;;;-143.39;100.00;64013.03;4987241;28;20065;-60
2024/01/24 04:33:32;;;;;;;135.57;124.47;;;;;;;-143.39;100.00;64013.03;4987415;28;20457;-61
2024/01/24 04:36:01;;;;;;;136.23;124.78;;;;;;;-143.39;100.00;64013.03;4980751;28;20050;-61
2024/01/24 04:38:28;;;;;;;135.00;122.32;;;;;;;-143.39;100.00;64013.03;4981050;28;20058;-60
2024/01/24 04:40:57;;;;;;;150.65;138.48;;;;;;;-143.39;100.00;64013.03;4978465;28;20388;-60
2024/01/24 04:43:26;;;;;;;158.13;145.93;;;;;;;-143.39;100.00;64013.03;4995838;28;20042;-60
2024/01/24 04:45:52;;;;;;;155.82;143.63;;;;;;;-143.39;100.00;64013.03;4989574;28;20046;-60
2024/01/24 04:48:19;;;;;;;162.13;150.02;;;;;;;-143.39;100.00;64013.03;4989965;28;20064;-59
2024/01/24 04:50:46;;;;;;;148.48;137.32;;;;;;;-143.39;100.00;64013.03;4996206;28;20050;-60
2024/01/24 04:53:16;;;;;;;142.77;131.60;;;;;;;-143.39;100.00;64013.03;4992960;28;20058;-59
2024/01/24 04:55:42;;;;;;;167.82;154.68;;;;;;;-143.39;100.00;64013.03;4981360;28;20050;-58
2024/01/24 04:58:11;;;;;;;158.00;145.73;;;;;;;-143.39;100.00;64013.03;4987049;28;20054;-59
2024/01/24 05:00:39;;;;;;;157.65;144.98;;;;;;;-143.39;100.00;64013.03;4972015;28;20051;-61
2024/01/24 05:03:06;;;;;;;145.85;134.13;;;;;;;-143.39;100.00;64013.03;4976318;28;20065;-61
2024/01/24 05:05:33;;;;;;;144.07;132.52;;;;;;;-143.39;100.00;64013.03;4977234;28;20539;-59
2024/01/24 05:08:00;;;;;;;154.15;141.85;;;;;;;-143.39;100.00;64013.03;4979331;28;20081;-59
2024/01/24 05:10:27;;;;;;;155.00;142.52;;;;;;;-143.39;100.00;64013.03;4982321;28;20435;-59
2024/01/24 05:12:54;;;;;;;153.95;141.30;;;;;;;-143.39;100.00;64013.03;4984222;28;20460;-61
2024/01/24 05:15:20;;;;;;;150.70;138.05;;;;;;;-143.39;100.00;64013.03;4983196;28;20050;-61
2024/01/24 05:17:49;;;;;;;143.77;132.13;;;;;;;-143.39;100.00;64013.03;4983191;28;20050;-59
2024/01/24 05:20:17;;;;;;;161.60;149.27;;;;;;;-143.39;100.00;64013.03;4969278;28;20058;-61
2024/01/24 05:22:44;;;;;;;162.43;149.98;;;;;;;-143.39;100.00;64013.03;4982030;28;20061;-59
2024/01/24 05:25:11;;;;;;;189.52;175.52;;;;;;;-143.39;100.00;64013.03;4975216;28;20058;-60
2024/01/24 05:27:38;;;;;;;174.02;160.43;;;;;;;-143.39;100.00;64013.03;4980463;28;20436;-59
2024/01/24 05:30:06;;;;;;;170.27;156.77;;;;;;;-143.39;100.00;64013.03;4977522;28;20054;-61
2024/01/24 05:32:33;;;;;;;170.57;157.18;;;;;;;-143.39;100.00;64013.03;4982546;28;20496;-63
2024/01/24 05:35:01;;;;;;;185.18;171.60;;;;;;;-143.39;100.00;64013.03;4973875;28;20058;-63
2024/01/24 05:37:28;;;;;;;167.60;154.98;;;;;;;-143.39;100.00;64013.03;4978813;28;20047;-63
2024/01/24 05:39:56;;;;;;;160.98;148.20;;;;;;;-143.39;100.00;64013.03;4974417;28;20061;-61
2024/01/24 05:42:23;;;;;;;164.63;151.48;;;;;;;-143.39;100.00;64013.03;4978525;28;20140;-59
2024/01/24 05:44:49;;;;;;;158.75;146.10;;;;;;;-143.39;100.00;64013.03;4974453;28;20529;-61
2024/01/24 05:47:16;;;;;;;160.93;147.95;;;;;;;-143.39;100.00;64013.03;4981254;28;20073;-61
2024/01/24 05:49:46;;;;;;;156.68;144.50;;;;;;;-143.39;100.00;64013.03;4979312;28;20050;-62
2024/01/24 05:52:16;;;;;;;152.00;140.10;;;;;;;-143.39;100.00;64013.03;4977785;28;20519;-62
2024/01/24 05:54:43;;;;;;;160.93;148.55;;;;;;;-143.39;100.00;64013.03;4977015;28;20063;-60
2024/01/24 05:57:10;;;;;;;168.32;155.73;;;;;;;-143.39;100.00;64013.03;4974306;28;20630;-62
2024/01/24 05:59:37;;;;;;;154.23;142.75;;;;;;;-143.39;100.00;64013.03;4978638;28;20401;-62
2024/01/24 06:02:05;;;;;;;152.40;140.20;;;;;;;-143.39;100.00;64013.03;4974262;28;20051;-62
2024/01/24 06:04:31;;;;;;;133.10;122.20;;;;;;;-143.39;100.00;64013.03;4976487;28;20149;-62
2024/01/24 06:07:00;;;;;;;151.30;139.60;;;;;;;-143.39;100.00;64013.03;4973580;28;20062;-60
2024/01/24 06:09:28;;;;;;;174.65;161.73;;;;;;;-143.39;100.00;64013.03;4977017;28;20439;-62
2024/01/24 06:11:55;;;;;;;152.20;140.50;;;;;;;-143.39;100.00;64013.03;4984688;28;20061;-61
2024/01/24 06:14:21;;;;;;;162.38;149.85;;;;;;;-143.39;100.00;64013.03;4973654;28;20142;-62
2024/01/24 06:16:48;;;;;;;178.63;165.27;;;;;;;-143.39;100.00;64013.03;4977190;28;20543;-61
2024/01/24 06:19:17;;;;;;;149.88;138.48;;;;;;;-143.39;100.00;64013.03;4973445;28;20050;-61
2024/01/24 06:21:44;;;;;;;128.57;118.28;;;;;;;-143.39;100.00;64013.03;4978032;28;20436;-61
2024/01/24 06:24:11;;;;;;;140.55;129.75;;;;;;;-143.39;100.00;64013.03;4981324;28;20456;-61
2024/01/24 06:26:39;;;;;;;164.35;151.93;;;;;;;-143.39;100.00;64013.03;4975987;28;20051;-60
2024/01/24 06:29:06;;;;;;;146.38;134.88;;;;;;;-143.39;100.00;64013.03;4971607;28;20158;-62
2024/01/24 06:31:33;;;;;;;152.35;140.25;;;;;;;-143.39;100.00;64013.03;4969105;28;20058;-61
2024/01/24 06:34:00;;;;;;;123.60;113.28;;;;;;;-143.39;100.00;64013.03;4975666;28;20080;-62
2024/01/24 06:36:28;;;;;;;141.98;130.77;;;;;;;-143.39;100.00;64013.03;4978628;28;20572;-62
2024/01/24 06:38:55;;;;;;;169.15;155.90;;;;;;;-143.39;100.00;64013.03;4974901;28;20051;-60
2024/01/24 06:41:22;;;;;;;138.93;127.30;;;;;;;-143.39;100.00;64013.03;4971527;28;20536;-59
2024/01/24 06:43:50;;;;;;;132.90;121.75;;;;;;;-143.39;100.00;64013.03;4980016;28;20066;-63
2024/01/24 06:46:18;;;;;;;130.38;119.65;;;;;;;-143.39;100.00;64013.03;4982223;28;20050;-62
2024/01/24 06:48:45;;;;;;;132.57;120.78;;;;;;;-143.39;100.00;64013.03;4978897;28;20583;-60
2024/01/24 06:51:13;;;;;;;150.55;139.23;;;;;;;-143.39;100.00;64013.03;4973071;28;20065;-62
2024/01/24 06:53:39;;;;;;;122.35;112.75;;;;;;;-143.39;100.00;64013.03;4972198;28;20791;-61
2024/01/24 06:56:08;;;;;;;137.50;126.85;;;;;;;-143.39;100.00;64013.03;4972210;28;20065;-61
2024/01/24 06:58:36;;;;;;;127.22;116.88;;;;;;;-143.39;100.00;64013.03;4971629;28;20047;-61
2024/01/24 07:01:05;;;;;;;134.35;123.15;;;;;;;-143.39;100.00;64013.03;4975358;28;20084;-61
2024/01/24 07:03:31;;;;;;;133.45;122.40;;;;;;;-143.39;100.00;64013.03;4982773;28;20047;-60
2024/01/24 07:05:58;;;;;;;180.68;167.32;;;;;;;-143.39;100.00;64013.03;4983446;28;20489;-60
2024/01/24 07:08:25;;;;;;;169.35;156.18;;;;;;;-143.39;100.00;64013.03;4975593;28;20050;-61
2024/01/24 07:10:52;;;;;;;149.55;137.45;;;;;;;-143.39;100.00;64013.03;4981209;28;20531;-61
2024/01/24 07:13:19;;;;;;;137.75;125.88;;;;;;;-143.39;100.00;64013.03;4972097;28;20066;-60
2024/01/24 07:15:46;;;;;;;136.27;125.03;;;;;;;-143.39;100.00;64013.03;4976477;28;20102;-60
2024/01/24 07:18:14;;;;;;;141.88;130.38;;;;;;;-143.39;100.00;64013.03;4977314;28;20063;-62
2024/01/24 07:20:43;;;;;;;154.57;142.70;;;;;;;-143.39;100.00;64013.03;4979849;28;20092;-61
2024/01/24 07:23:09;;;;;;;159.60;146.80;;;;;;;-143.39;100.00;64013.03;4986438;28;20086;-60
2024/01/24 07:25:36;;;;;;;152.48;140.48;;;;;;;-143.39;100.00;64013.03;4970667;28;20051;-62
2024/01/24 07:28:03;;;;;;;134.02;123.38;;;;;;;-143.39;100.00;64013.03;4980018;28;20054;-62
2024/01/24 07:30:33;;;;;;;134.18;123.05;;;;;;;-143.39;100.00;64013.03;4973244;28;20066;-61
2024/01/24 07:33:03;;;;;;;129.55;118.85;;;;;;;-143.39;100.00;64013.03;4974363;28;20477;-60
2024/01/24 07:35:31;;;;;;;167.23;154.68;;;;;;;-143.39;100.00;64013.03;4978595;28;20551;-61
2024/01/24 07:37:58;;;;;;;156.50;144.52;;;;;;;-143.39;100.00;64013.03;4977357;28;20139;-62
2024/01/24 07:40:25;;;;;;;168.13;155.23;;;;;;;-143.39;100.00;64013.03;4982559;28;20050;-60
2024/01/24 07:42:54;;;;;;;163.57;150.60;;;;;;;-143.39;100.00;64013.03;4971911;28;20050;-62
2024/01/24 07:45:22;;;;;;;179.93;166.43;;;;;;;-143.39;100.00;64013.03;4980413;28;20061;-62
2024/01/24 07:47:49;;;;;;;169.35;155.45;;;;;;;-143.39;100.00;64013.03;4983345;28;20108;-61
2024/01/24 07:50:16;;;;;;;171.18;157.30;;;;;;;-143.39;100.00;64013.03;4984674;28;20459;-62
2024/01/24 07:52:45;;;;;;;159.98;147.13;;;;;;;-143.39;100.00;64013.03;4983127;28;20058;-63
2024/01/24 07:55:12;;;;;;;146.55;134.07;;;;;;;-143.39;100.00;64013.03;4975576;28;20112;-59
2024/01/24 07:57:39;;;;;;;152.52;140.18;;;;;;;-143.39;100.00;64013.03;4990524;28;20444;-59
2024/01/24 08:00:07;;;;;;;176.30;162.63;;;;;;;-143.39;100.00;64013.03;4971805;28;20516;-58
2024/01/24 08:02:34;;;;;;;181.45;167.25;;;;;;;-143.39;100.00;64013.03;4974623;28;20111;-61
2024/01/24 08:05:01;;;;;;;180.13;165.90;;;;;;;-143.39;100.00;64013.03;4985866;28;20054;-62
2024/01/24 08:07:28;;;;;;;167.15;153.15;;;;;;;-143.39;100.00;64013.03;4985581;28;20508;-62
2024/01/24 08:09:56;;;;;;;150.73;138.07;;;;;;;-143.39;100.00;64013.03;4980933;28;20072;-61
2024/01/24 08:12:23;;;;;;;158.95;145.27;;;;;;;-143.39;100.00;64013.03;4984425;28;20614;-60
2024/01/24 08:14:50;;;;;;;193.60;178.63;;;;;;;-143.39;100.00;64013.03;4982636;28;20051;-61
2024/01/24 08:17:17;;;;;;;187.18;172.85;;;;;;;-143.39;100.00;64013.03;4985509;28;20077;-58
2024/01/24 08:19:44;;;;;;;143.32;131.40;;;;;;;-143.39;100.00;64013.03;4983736;28;20061;-61
2024/01/24 08:22:11;;;;;;;169.10;155.38;;;;;;;-143.39;100.00;64013.03;4979122;28;20054;-58
2024/01/24 08:24:38;;;;;;;155.02;142.43;;;;;;;-143.39;100.00;64013.03;4980959;28;20701;-59
2024/01/24 08:27:06;;;;;;;161.45;148.25;;;;;;;-143.39;100.00;64013.03;4977794;28;20067;-59
2024/01/24 08:29:33;;;;;;;160.00;146.43;;;;;;;-143.39;100.00;64013.03;4978499;28;20083;-61
2024/01/24 08:32:00;;;;;;;184.00;169.13;;;;;;;-143.39;100.00;64013.03;4980204;28;20070;-59
2024/01/24 08:34:27;;;;;;;173.88;159.30;;;;;;;-143.39;100.00;64013.03;4977872;28;20050;-60
2024/01/24 08:36:54;;;;;;;158.73;145.27;;;;;;;-143.39;100.00;64013.03;4972664;28;20058;-59
2024/01/24 08:39:21;;;;;;;155.25;141.75;;;;;;;-143.39;100.00;64013.03;4981150;28;20054;-60
2024/01/24 08:41:48;;;;;;;158.68;145.25;;;;;;;-143.39;100.00;64013.03;4984238;28;20058;-60
2024/01/24 08:44:16;;;;;;;151.60;139.00;;;;;;;-143.39;100.00;64013.03;4977501;28;20047;-59
2024/01/24 08:46:43;;;;;;;145.20;132.88;;;;;;;-143.39;100.00;64013.03;4983252;28;20054;-59
2024/01/24 08:49:12;;;;;;;129.43;118.80;;;;;;;-143.39;100.00;64013.03;4991556;28;20046;-59
2024/01/24 08:51:39;;;;;;;151.95;140.05;;;;;;;-143.39;100.00;64013.03;4987390;28;20054;-59
2024/01/24 08:54:06;;;;;;;180.50;166.30;;;;;;;-143.39;100.00;64013.03;4982359;28;20158;-59
2024/01/24 08:56:33;;;;;;;200.00;185.13;;;;;;;-143.39;100.00;64013.03;4991115;28;20057;-59
2024/01/24 08:59:00;;;;;;;187.32;172.23;;;;;;;-143.39;100.00;64013.03;4977942;28;20047;-59
2024/01/24 09:01:28;;;;;;;188.50;173.35;;;;;;;-143.39;100.00;64013.03;4986629;28;20488;-59
2024/01/24 09:03:55;;;;;;;211.65;195.70;;;;;;;-143.39;100.00;64013.03;4984709;28;20049;-59
2024/01/24 09:06:22;;;;;;;197.10;181.68;;;;;;;-143.39;100.00;64013.03;4991752;28;20550;-59
2024/01/24 09:08:51;;;;;;;207.15;190.93;;;;;;;-143.39;100.00;64013.03;4987433;28;20050;-59
2024/01/24 09:11:18;;;;;;;214.68;198.65;;;;;;;-143.39;100.00;64013.03;4986122;28;20053;-59
2024/01/24 09:13:46;;;;;;;201.05;185.63;;;;;;;-143.39;100.00;64013.03;4987286;28;20085;-59
2024/01/24 09:16:13;;;;;;;195.13;180.13;;;;;;;-143.39;100.00;64013.03;4984643;28;20234;-59
2024/01/24 09:18:42;;;;;;;154.50;141.90;;;;;;;-143.39;100.00;64013.03;4974682;28;20412;-59
2024/01/24 09:21:09;;;;;;;153.80;141.25;;;;;;;-143.39;100.00;64013.03;4993011;28;20512;-59
2024/01/24 09:23:36;;;;;;;178.13;164.02;;;;;;;-143.39;100.00;64013.03;4990375;28;20054;-59
2024/01/24 09:26:03;;;;;;;211.40;195.10;;;;;;;-143.39;100.00;64013.03;4983794;28;20058;-59
2024/01/24 09:28:30;;;;;;;223.30;206.02;;;;;;;-143.39;100.00;64013.03;4977192;28;20504;-59
2024/01/24 09:30:57;;;;;;;219.20;202.07;;;;;;;-143.39;100.00;64013.03;4965902;28;20066;-60
2024/01/24 09:33:24;;;;;;;197.75;181.93;;;;;;;-143.39;100.00;64013.03;4980961;28;20054;-60
2024/01/24 09:35:52;;;;;;;212.68;194.65;;;;;;;-143.39;100.00;64013.03;4983676;28;20488;-59
2024/01/24 09:38:19;;;;;;;223.07;205.98;;;;;;;-143.39;100.00;64013.03;4985654;28;20439;-58
2024/01/24 09:40:46;;;;;;;219.82;202.82;;;;;;;-143.39;100.00;64013.03;4975115;28;20058;-58
2024/01/24 09:43:15;;;;;;;224.43;207.45;;;;;;;-143.39;100.00;64013.03;4987887;28;20065;-59
2024/01/24 09:45:43;;;;;;;206.43;190.02;;;;;;;-143.39;100.00;64013.03;4978290;28;20053;-58
2024/01/24 09:48:11;;;;;;;191.27;176.18;;;;;;;-143.39;100.00;64013.03;4979178;28;20552;-59
2024/01/24 09:50:38;;;;;;;205.02;189.13;;;;;;;-143.39;100.00;64013.03;4971987;28;20530;-58
2024/01/24 09:53:10;;;;;;;220.00;203.30;;;;;;;-143.39;100.00;64013.03;4980977;28;20057;-59
2024/01/24 09:55:37;;;;;;;236.38;218.15;;;;;;;-143.39;100.00;64013.03;4989807;28;20054;-59
2024/01/24 09:58:04;;;;;;;237.95;219.98;;;;;;;-143.39;100.00;64013.03;4985328;28;20050;-59
2024/01/24 10:00:31;;;;;;;258.00;238.48;;;;;;;-143.39;100.00;64013.03;4983090;28;20061;-60
2024/01/24 10:02:59;;;;;;;240.52;221.27;;;;;;;-143.39;100.00;64013.03;4992350;28;20081;-59
2024/01/24 10:05:27;;;;;;;235.85;217.30;;;;;;;-143.39;100.00;64013.03;4993292;28;20057;-58
2024/01/24 10:07:55;;;;;;;251.50;231.80;;;;;;;-143.39;100.00;64013.03;4976615;28;20057;-59
2024/01/24 10:10:23;;;;;;;211.45;194.40;;;;;;;-143.39;100.00;64013.03;4979893;28;20048;-59
2024/01/24 10:12:51;;;;;;;219.90;202.32;;;;;;;-143.39;100.00;64013.03;4984139;28;21277;-59
2024/01/24 10:15:18;;;;;;;224.73;207.45;;;;;;;-143.39;100.00;64013.03;4977034;28;20054;-59
2024/01/24 10:17:47;;;;;;;213.50;196.00;;;;;;;-143.39;100.00;64013.03;4979143;28;20571;-59
2024/01/24 10:20:17;;;;;;;206.60;190.10;;;;;;;-143.39;100.00;64013.03;4979961;28;21177;-59
2024/01/24 10:22:44;;;;;;;206.55;190.57;;;;;;;-143.39;100.00;64013.03;4983375;28;20073;-59
2024/01/24 10:25:12;;;;;;;229.82;211.95;;;;;;;-143.39;100.00;64013.03;4985834;28;20043;-59
2024/01/24 10:27:41;;;;;;;242.48;223.27;;;;;;;-143.39;100.00;64013.03;4981365;28;20065;-59
2024/01/24 10:30:15;;;;;;;224.45;206.55;;;;;;;-143.39;100.00;64013.03;4969571;28;20628;-60
2024/01/24 10:32:45;;;;;;;228.98;210.30;;;;;;;-143.39;100.00;64013.03;4980411;28;20073;-60
2024/01/24 10:35:12;;;;;;;244.35;224.63;;;;;;;-143.39;100.00;64013.03;4984971;28;20054;-60
2024/01/24 10:37:41;;;;;;;257.42;236.55;;;;;;;-143.39;100.00;64013.03;4980524;28;20054;-61
2024/01/24 10:40:14;;;;;;;259.65;238.52;;;;;;;-143.39;100.00;64013.03;4986175;28;20046;-61